createdAt,value
2022-10-01T00:02:15.435Z,9.04
2022-10-01T00:04:45.701Z,9.01
2022-10-01T00:07:16.266Z,8.97
2022-10-01T00:09:47.421Z,8.94
2022-10-01T00:12:17.683Z,8.91
2022-10-01T00:14:47.915Z,8.89
2022-10-01T00:17:18.174Z,8.87
2022-10-01T00:19:48.425Z,8.84
2022-10-01T00:22:19.020Z,8.81
2022-10-01T00:24:50.183Z,8.78
2022-10-01T00:27:20.459Z,8.75
2022-10-01T00:29:50.687Z,8.72
2022-10-01T00:32:21.010Z,8.68
2022-10-01T00:34:53.695Z,8.66
2022-10-01T00:37:23.924Z,8.63
2022-10-01T00:39:54.283Z,8.61
2022-10-01T00:42:26.761Z,8.58
2022-10-01T00:44:57.952Z,8.55
2022-10-01T00:47:34.779Z,8.53
2022-10-01T00:50:10.969Z,8.51
2022-10-01T00:52:44.629Z,8.49
2022-10-01T00:55:20.708Z,8.47
2022-10-01T00:57:51.655Z,8.45
2022-10-01T01:00:22.715Z,8.43
2022-10-01T01:02:53.961Z,8.40
2022-10-01T01:05:24.561Z,8.38
2022-10-01T01:07:56.127Z,8.36
2022-10-01T01:10:31.348Z,8.33
2022-10-01T01:13:18.855Z,8.30
2022-10-01T01:15:57.594Z,8.28
2022-10-01T01:18:32.675Z,8.27
2022-10-01T01:21:19.343Z,8.26
2022-10-01T01:24:28.476Z,8.24
2022-10-01T01:27:09.633Z,8.22
2022-10-01T01:29:44.891Z,8.21
2022-10-01T01:32:20.644Z,8.19
2022-10-01T01:34:55.969Z,8.18
2022-10-01T01:37:31.974Z,8.17
2022-10-01T01:40:04.407Z,8.16
2022-10-01T01:42:37.511Z,8.14
2022-10-01T01:45:11.906Z,8.14
2022-10-01T01:47:44.261Z,8.10
2022-10-01T01:50:16.808Z,8.05
2022-10-01T01:52:47.167Z,8.02
2022-10-01T01:55:17.497Z,8.01
2022-10-01T01:57:48.278Z,8.00
2022-10-01T02:00:18.602Z,8.00
2022-10-01T02:02:54.564Z,7.99
2022-10-01T02:05:29.189Z,7.95
2022-10-01T02:08:17.500Z,7.89
2022-10-01T02:11:06.044Z,7.83
2022-10-01T02:13:50.237Z,7.77
2022-10-01T02:16:27.687Z,7.74
2022-10-01T02:19:03.001Z,7.75
2022-10-01T02:21:41.073Z,7.75
2022-10-01T02:24:19.212Z,7.73
2022-10-01T02:26:51.898Z,7.71
2022-10-01T02:29:24.892Z,7.69
2022-10-01T02:31:57.794Z,7.67
2022-10-01T02:34:31.998Z,7.64
2022-10-01T02:37:05.206Z,7.62
2022-10-01T02:39:37.449Z,7.60
2022-10-01T02:42:09.617Z,7.57
2022-10-01T02:44:43.272Z,7.55
2022-10-01T02:47:20.771Z,7.51
2022-10-01T02:49:52.503Z,7.49
2022-10-01T02:52:31.316Z,7.48
2022-10-01T02:55:06.468Z,7.48
2022-10-01T02:57:36.892Z,7.47
2022-10-01T03:00:11.848Z,7.45
2022-10-01T03:02:42.180Z,7.43
2022-10-01T03:05:12.836Z,7.42
2022-10-01T03:07:43.812Z,7.41
2022-10-01T03:10:16.018Z,7.39
2022-10-01T03:12:46.913Z,7.38
2022-10-01T03:15:19.482Z,7.36
2022-10-01T03:17:53.846Z,7.33
2022-10-01T03:20:24.647Z,7.22
2022-10-01T03:22:54.908Z,7.17
2022-10-01T03:25:25.467Z,7.16
2022-10-01T03:27:55.791Z,7.16
2022-10-01T03:30:26.934Z,7.12
2022-10-01T03:32:57.181Z,7.08
2022-10-01T03:35:27.534Z,7.07
2022-10-01T03:37:58.532Z,7.03
2022-10-01T03:40:28.940Z,7.00
2022-10-01T03:43:08.204Z,6.95
2022-10-01T03:45:39.494Z,6.89
2022-10-01T03:48:10.023Z,6.85
2022-10-01T03:50:40.306Z,6.75
2022-10-01T03:53:10.618Z,6.71
2022-10-01T03:55:40.858Z,6.69
2022-10-01T03:58:11.139Z,6.68
2022-10-01T04:00:41.811Z,6.68
2022-10-01T04:03:12.131Z,6.66
2022-10-01T04:05:42.964Z,6.64
2022-10-01T04:08:14.055Z,6.63
2022-10-01T04:10:44.867Z,6.61
2022-10-01T04:13:15.179Z,6.56
2022-10-01T04:15:45.787Z,6.54
2022-10-01T04:18:17.426Z,6.44
2022-10-01T04:20:48.061Z,6.40
2022-10-01T04:23:18.413Z,6.41
2022-10-01T04:25:48.642Z,6.35
2022-10-01T04:28:19.344Z,6.30
2022-10-01T04:31:09.647Z,6.26
2022-10-01T04:33:39.955Z,6.22
2022-10-01T04:36:10.215Z,6.19
2022-10-01T04:38:40.567Z,6.15
2022-10-01T04:41:11.043Z,6.11
2022-10-01T04:43:41.498Z,6.06
2022-10-01T04:46:11.843Z,6.04
2022-10-01T04:48:42.223Z,6.03
2022-10-01T04:51:12.496Z,6.02
2022-10-01T04:53:42.800Z,6.00
2022-10-01T04:56:13.193Z,5.98
2022-10-01T04:58:43.391Z,6.00
2022-10-01T05:01:13.672Z,6.00
2022-10-01T05:03:43.904Z,6.00
2022-10-01T05:06:14.132Z,6.00
2022-10-01T05:08:44.407Z,6.01
2022-10-01T05:11:14.730Z,6.02
2022-10-01T05:13:45.300Z,6.02
2022-10-01T05:16:15.555Z,6.04
2022-10-01T05:18:46.033Z,6.07
2022-10-01T05:21:16.842Z,6.10
2022-10-01T05:23:47.126Z,6.12
2022-10-01T05:26:17.367Z,6.16
2022-10-01T05:28:47.592Z,6.19
2022-10-01T05:31:18.806Z,6.22
2022-10-01T05:33:49.124Z,6.25
2022-10-01T05:36:19.523Z,6.28
2022-10-01T05:38:52.503Z,6.32
2022-10-01T05:41:22.747Z,6.34
2022-10-01T05:43:53.037Z,6.38
2022-10-01T05:46:23.307Z,6.40
2022-10-01T05:48:53.562Z,6.44
2022-10-01T05:51:24.297Z,6.48
2022-10-01T05:53:56.290Z,6.53
2022-10-01T05:56:26.669Z,6.59
2022-10-01T05:58:56.909Z,6.64
2022-10-01T06:01:27.613Z,6.69
2022-10-01T06:03:58.064Z,6.73
2022-10-01T06:06:29.235Z,6.78
2022-10-01T06:09:00.323Z,6.82
2022-10-01T06:11:30.586Z,6.87
2022-10-01T06:14:01.903Z,6.91
2022-10-01T06:16:32.176Z,6.97
2022-10-01T06:19:02.931Z,7.03
2022-10-01T06:21:33.453Z,7.08
2022-10-01T06:24:04.144Z,7.15
2022-10-01T06:26:34.445Z,7.21
2022-10-01T06:29:04.730Z,7.28
2022-10-01T06:31:35.346Z,7.31
2022-10-01T06:34:06.058Z,7.33
2022-10-01T06:36:37.353Z,7.34
2022-10-01T06:39:07.736Z,7.37
2022-10-01T06:41:38.093Z,7.44
2022-10-01T06:44:08.550Z,7.52
2022-10-01T06:46:38.849Z,7.60
2022-10-01T06:49:09.332Z,7.69
2022-10-01T06:51:56.360Z,7.78
2022-10-01T06:54:27.355Z,7.88
2022-10-01T06:56:57.587Z,7.98
2022-10-01T06:59:28.278Z,8.07
2022-10-01T07:01:58.567Z,8.17
2022-10-01T07:04:30.163Z,8.27
2022-10-01T07:07:00.400Z,8.38
2022-10-01T07:09:30.691Z,8.50
2022-10-01T07:12:00.941Z,8.61
2022-10-01T07:14:31.183Z,8.72
2022-10-01T07:17:01.582Z,8.83
2022-10-01T07:19:32.817Z,8.94
2022-10-01T07:22:03.046Z,9.05
2022-10-01T07:24:33.579Z,9.17
2022-10-01T07:27:07.410Z,9.28
2022-10-01T07:29:38.013Z,9.39
2022-10-01T07:32:10.564Z,9.49
2022-10-01T07:34:41.824Z,9.58
2022-10-01T07:37:12.311Z,9.66
2022-10-01T07:39:42.678Z,9.70
2022-10-01T07:42:12.941Z,9.78
2022-10-01T07:44:43.285Z,9.84
2022-10-01T07:47:15.353Z,9.94
2022-10-01T07:49:45.658Z,10.02
2022-10-01T07:52:15.915Z,10.11
2022-10-01T07:54:48.044Z,10.20
2022-10-01T07:57:18.886Z,10.31
2022-10-01T07:59:53.497Z,10.41
2022-10-01T08:02:26.916Z,10.50
2022-10-01T08:05:14.796Z,10.59
2022-10-01T08:07:45.215Z,10.69
2022-10-01T08:10:17.526Z,10.79
2022-10-01T08:12:48.202Z,10.88
2022-10-01T08:15:19.632Z,10.97
2022-10-01T08:17:49.856Z,11.07
2022-10-01T08:20:21.585Z,11.17
2022-10-01T08:22:51.918Z,11.28
2022-10-01T08:25:22.310Z,11.39
2022-10-01T08:27:53.904Z,11.43
2022-10-01T08:30:24.339Z,11.45
2022-10-01T08:32:57.994Z,11.49
2022-10-01T08:35:30.158Z,11.54
2022-10-01T08:38:05.818Z,11.65
2022-10-01T08:40:42.321Z,11.77
2022-10-01T08:43:24.250Z,11.89
2022-10-01T08:45:59.993Z,12.00
2022-10-01T08:48:44.670Z,12.11
2022-10-01T08:51:24.312Z,12.26
2022-10-01T08:53:58.609Z,12.39
2022-10-01T08:56:33.056Z,12.48
2022-10-01T08:59:14.359Z,12.54
2022-10-01T09:01:44.727Z,12.61
2022-10-01T09:04:15.169Z,12.70
2022-10-01T09:06:49.983Z,12.82
2022-10-01T09:09:33.821Z,12.93
2022-10-01T09:12:21.053Z,13.06
2022-10-01T09:15:07.975Z,13.25
2022-10-01T09:17:53.320Z,13.45
2022-10-01T09:20:30.269Z,13.63
2022-10-01T09:23:14.794Z,13.77
2022-10-01T09:25:50.331Z,13.91
2022-10-01T09:28:23.640Z,14.01
2022-10-01T09:30:58.382Z,14.10
2022-10-01T09:33:34.646Z,14.15
2022-10-01T09:36:16.484Z,14.20
2022-10-01T09:38:52.843Z,14.23
2022-10-01T09:41:23.208Z,14.24
2022-10-01T09:43:53.482Z,14.26
2022-10-01T09:46:29.053Z,14.29
2022-10-01T09:49:05.056Z,14.30
2022-10-01T09:51:41.839Z,14.33
2022-10-01T09:54:15.181Z,14.38
2022-10-01T09:56:50.980Z,14.43
2022-10-01T09:59:24.945Z,14.49
2022-10-01T10:01:59.045Z,14.57
2022-10-01T10:04:29.605Z,14.66
2022-10-01T10:07:05.999Z,14.73
2022-10-01T10:09:38.346Z,14.80
2022-10-01T10:12:18.648Z,14.86
2022-10-01T10:14:49.020Z,14.92
2022-10-01T10:17:21.247Z,14.97
2022-10-01T10:19:53.768Z,15.02
2022-10-01T10:22:27.063Z,15.12
2022-10-01T10:24:59.330Z,15.26
2022-10-01T10:27:31.548Z,15.35
2022-10-01T10:30:08.718Z,15.43
2022-10-01T10:32:39.119Z,15.50
2022-10-01T10:35:14.293Z,15.54
2022-10-01T10:37:49.770Z,15.59
2022-10-01T10:40:28.483Z,15.68
2022-10-01T10:43:01.385Z,15.73
2022-10-01T10:45:38.021Z,15.80
2022-10-01T10:48:16.909Z,15.88
2022-10-01T10:50:49.765Z,15.96
2022-10-01T10:53:24.858Z,16.05
2022-10-01T10:56:01.167Z,16.14
2022-10-01T10:58:33.335Z,16.20
2022-10-01T11:01:09.713Z,16.24
2022-10-01T11:03:45.931Z,16.25
2022-10-01T11:06:18.581Z,16.27
2022-10-01T11:08:58.714Z,16.27
2022-10-01T11:11:45.591Z,16.25
2022-10-01T11:14:30.696Z,16.20
2022-10-01T11:17:23.306Z,16.19
2022-10-01T11:20:21.333Z,16.14
2022-10-01T11:23:06.468Z,16.12
2022-10-01T11:25:47.579Z,16.12
2022-10-01T11:28:30.620Z,16.16
2022-10-01T11:31:11.867Z,16.18
2022-10-01T11:33:51.474Z,16.21
2022-10-01T11:36:29.067Z,16.26
2022-10-01T11:39:03.595Z,16.32
2022-10-01T11:41:39.655Z,16.37
2022-10-01T11:44:18.191Z,16.43
2022-10-01T11:46:58.582Z,16.48
2022-10-01T11:49:50.581Z,16.47
2022-10-01T11:52:33.923Z,16.47
2022-10-01T11:55:35.361Z,16.50
2022-10-01T11:58:31.797Z,16.54
2022-10-01T12:01:10.774Z,16.57
2022-10-01T12:03:51.944Z,16.58
2022-10-01T12:06:32.998Z,16.60
2022-10-01T12:09:10.677Z,16.61
2022-10-01T12:11:43.629Z,16.63
2022-10-01T12:14:18.610Z,16.65
2022-10-01T12:16:53.281Z,16.67
2022-10-01T12:19:28.890Z,16.69
2022-10-01T12:22:06.164Z,16.69
2022-10-01T12:24:41.135Z,16.67
2022-10-01T12:27:37.088Z,16.65
2022-10-01T12:30:23.036Z,16.63
2022-10-01T12:33:08.414Z,16.62
2022-10-01T12:35:51.224Z,16.64
2022-10-01T12:38:32.839Z,16.66
2022-10-01T12:41:13.705Z,16.66
2022-10-01T12:43:58.418Z,16.65
2022-10-01T12:46:40.348Z,16.66
2022-10-01T12:49:24.110Z,16.67
2022-10-01T12:52:01.372Z,16.68
2022-10-01T12:54:42.934Z,16.70
2022-10-01T12:57:32.989Z,16.69
2022-10-01T13:00:11.156Z,16.65
2022-10-01T13:02:59.283Z,16.63
2022-10-01T13:05:39.329Z,16.63
2022-10-01T13:08:28.039Z,16.65
2022-10-01T13:11:05.593Z,16.69
2022-10-01T13:13:38.327Z,16.73
2022-10-01T13:16:19.274Z,16.77
2022-10-01T13:19:03.319Z,16.80
2022-10-01T13:21:53.452Z,16.86
2022-10-01T13:24:31.406Z,16.87
2022-10-01T13:27:07.426Z,16.90
2022-10-01T13:29:50.660Z,16.90
2022-10-01T13:32:29.923Z,16.92
2022-10-01T13:35:03.745Z,16.91
2022-10-01T13:37:40.474Z,16.88
2022-10-01T13:40:22.428Z,16.85
2022-10-01T13:42:55.260Z,16.79
2022-10-01T13:45:29.351Z,16.73
2022-10-01T13:48:19.095Z,16.67
2022-10-01T13:51:05.067Z,16.56
2022-10-01T13:53:39.169Z,16.47
2022-10-01T13:56:11.711Z,16.38
2022-10-01T13:58:43.080Z,16.30
2022-10-01T14:01:31.518Z,16.21
2022-10-01T14:04:16.207Z,16.12
2022-10-01T14:06:53.502Z,16.04
2022-10-01T14:09:27.232Z,16.00
2022-10-01T14:12:27.391Z,15.97
2022-10-01T14:15:17.698Z,15.90
2022-10-01T14:17:53.257Z,15.84
2022-10-01T14:20:29.858Z,15.78
2022-10-01T14:23:11.837Z,15.72
2022-10-01T14:25:53.514Z,15.68
2022-10-01T14:28:46.087Z,15.61
2022-10-01T14:31:25.191Z,15.55
2022-10-01T14:34:18.944Z,15.49
2022-10-01T14:36:51.944Z,15.44
2022-10-01T14:39:24.214Z,15.38
2022-10-01T14:41:56.830Z,15.32
2022-10-01T14:44:29.653Z,15.27
2022-10-01T14:47:01.132Z,15.21
2022-10-01T14:49:32.624Z,15.17
2022-10-01T14:52:05.464Z,15.09
2022-10-01T14:54:44.670Z,14.99
2022-10-01T14:57:19.399Z,14.79
2022-10-01T14:59:50.985Z,14.55
2022-10-01T15:02:23.165Z,14.30
2022-10-01T15:04:56.705Z,14.19
2022-10-01T15:07:32.905Z,14.14
2022-10-01T15:10:10.434Z,14.07
2022-10-01T15:12:43.286Z,13.97
2022-10-01T15:15:23.001Z,13.90
2022-10-01T15:17:54.391Z,13.81
2022-10-01T15:20:25.047Z,13.68
2022-10-01T15:23:00.526Z,13.59
2022-10-01T15:25:33.252Z,13.50
2022-10-01T15:28:13.945Z,13.39
2022-10-01T15:30:45.808Z,13.29
2022-10-01T15:33:27.503Z,13.22
2022-10-01T15:36:00.756Z,13.14
2022-10-01T15:38:32.654Z,13.07
2022-10-01T15:41:29.795Z,12.97
2022-10-01T15:43:56.094Z,12.92
2022-10-01T15:46:33.499Z,12.89
2022-10-01T15:49:20.484Z,12.81
2022-10-01T15:52:13.107Z,12.74
2022-10-01T15:54:45.445Z,12.65
2022-10-01T15:57:21.904Z,12.58
2022-10-01T15:59:55.305Z,12.53
2022-10-01T16:02:29.630Z,12.48
2022-10-01T16:05:07.192Z,12.42
2022-10-01T16:07:39.467Z,12.37
2022-10-01T16:10:29.129Z,12.33
2022-10-01T16:13:02.576Z,12.26
2022-10-01T16:15:33.520Z,12.21
2022-10-01T16:18:05.073Z,12.15
2022-10-01T16:20:39.246Z,12.13
2022-10-01T16:23:43.970Z,12.08
2022-10-01T16:26:33.612Z,12.03
2022-10-01T16:29:07.109Z,12.00
2022-10-01T16:31:41.200Z,11.96
2022-10-01T16:34:16.387Z,11.93
2022-10-01T16:36:47.090Z,11.88
2022-10-01T16:39:19.762Z,11.85
2022-10-01T16:42:11.942Z,11.82
2022-10-01T16:44:41.956Z,11.79
2022-10-01T16:47:13.955Z,11.78
2022-10-01T16:49:44.186Z,11.76
2022-10-01T16:52:17.600Z,11.74
2022-10-01T16:54:47.904Z,11.73
2022-10-01T16:57:18.775Z,11.72
2022-10-01T16:59:48.993Z,11.70
2022-10-01T17:02:19.726Z,11.68
2022-10-01T17:04:50.000Z,11.68
2022-10-01T17:07:20.249Z,11.67
2022-10-01T17:09:50.494Z,11.66
2022-10-01T17:12:20.837Z,11.63
2022-10-01T17:14:51.169Z,11.61
2022-10-01T17:17:21.419Z,11.60
2022-10-01T17:19:51.698Z,11.59
2022-10-01T17:22:24.075Z,11.58
2022-10-01T17:24:54.382Z,11.57
2022-10-01T17:27:24.731Z,11.56
2022-10-01T17:29:56.449Z,11.54
2022-10-01T17:32:26.865Z,11.52
2022-10-01T17:34:57.136Z,11.51
2022-10-01T17:37:27.458Z,11.51
2022-10-01T17:39:57.830Z,11.49
2022-10-01T17:42:28.111Z,11.47
2022-10-01T17:44:58.378Z,11.45
2022-10-01T17:47:28.621Z,11.45
2022-10-01T17:49:58.822Z,11.44
2022-10-01T17:52:29.461Z,11.43
2022-10-01T17:54:59.712Z,11.43
2022-10-01T17:57:29.982Z,11.42
2022-10-01T18:00:00.270Z,11.40
2022-10-01T18:02:47.042Z,11.39
2022-10-01T18:05:17.612Z,11.38
2022-10-01T18:07:47.950Z,11.38
2022-10-01T18:10:18.320Z,11.38
2022-10-01T18:12:48.897Z,11.38
2022-10-01T18:15:20.997Z,11.37
2022-10-01T18:18:38.122Z,11.37
2022-10-01T18:20:43.176Z,11.37
2022-10-01T18:23:14.000Z,11.38
2022-10-01T18:25:44.303Z,11.38
2022-10-01T18:28:14.682Z,11.38
2022-10-01T18:30:45.036Z,11.37
2022-10-01T18:33:15.945Z,11.36
2022-10-01T18:35:47.955Z,11.35
2022-10-01T18:38:25.702Z,11.35
2022-10-01T18:41:02.870Z,11.35
2022-10-01T18:43:37.521Z,11.36
2022-10-01T18:46:18.216Z,11.36
2022-10-01T18:49:04.453Z,11.36
2022-10-01T18:51:52.806Z,11.38
2022-10-01T18:54:43.163Z,11.37
2022-10-01T18:57:29.560Z,11.35
2022-10-01T19:00:12.684Z,11.33
2022-10-01T19:03:01.438Z,11.32
2022-10-01T19:05:52.140Z,11.31
2022-10-01T19:08:36.373Z,11.31
2022-10-01T19:11:18.155Z,11.30
2022-10-01T19:13:59.553Z,11.29
2022-10-01T19:16:42.541Z,11.29
2022-10-01T19:19:28.630Z,11.29
2022-10-01T19:22:03.183Z,11.30
2022-10-01T19:24:55.426Z,11.30
2022-10-01T19:27:44.781Z,11.30
2022-10-01T19:30:17.493Z,11.31
2022-10-01T19:32:54.811Z,11.31
2022-10-01T19:35:31.864Z,11.32
2022-10-01T19:38:04.306Z,11.32
2022-10-01T19:40:41.212Z,11.30
2022-10-01T19:43:20.238Z,11.29
2022-10-01T19:45:55.783Z,11.29
2022-10-01T19:48:32.317Z,11.29
2022-10-01T19:51:08.470Z,11.29
2022-10-01T19:53:41.813Z,11.27
2022-10-01T19:56:18.706Z,11.26
2022-10-01T19:58:49.121Z,11.24
2022-10-01T20:01:23.495Z,11.23
2022-10-01T20:03:58.716Z,11.22
2022-10-01T20:06:33.413Z,11.21
2022-10-01T20:09:09.347Z,11.20
2022-10-01T20:11:46.703Z,11.19
2022-10-01T20:14:47.183Z,11.19
2022-10-01T20:17:25.627Z,11.19
2022-10-01T20:20:02.542Z,11.19
2022-10-01T20:22:41.089Z,11.19
2022-10-01T20:25:16.848Z,11.20
2022-10-01T20:27:55.982Z,11.20
2022-10-01T20:30:28.732Z,11.20
2022-10-01T20:33:04.307Z,11.20
2022-10-01T20:35:45.656Z,11.21
2022-10-01T20:38:20.634Z,11.21
2022-10-01T20:40:56.143Z,11.21
2022-10-01T20:43:34.090Z,11.21
2022-10-01T20:46:10.339Z,11.21
2022-10-01T20:48:46.294Z,11.21
2022-10-01T20:51:19.194Z,11.20
2022-10-01T20:53:55.199Z,11.19
2022-10-01T20:56:31.582Z,11.17
2022-10-01T20:59:08.137Z,11.15
2022-10-01T21:01:46.504Z,11.12
2022-10-01T21:04:21.823Z,11.08
2022-10-01T21:06:57.606Z,11.05
2022-10-01T21:09:34.612Z,11.04
2022-10-01T21:12:06.703Z,11.01
2022-10-01T21:14:42.964Z,10.97
2022-10-01T21:17:36.786Z,10.94
2022-10-01T21:20:27.770Z,10.92
2022-10-01T21:23:13.333Z,10.90
2022-10-01T21:25:56.974Z,10.91
2022-10-01T21:28:48.498Z,10.93
2022-10-01T21:31:30.987Z,10.94
2022-10-01T21:34:08.175Z,10.95
2022-10-01T21:36:47.905Z,10.97
2022-10-01T21:39:25.496Z,10.98
2022-10-01T21:42:05.143Z,11.00
2022-10-01T21:45:05.167Z,11.01
2022-10-01T21:47:50.449Z,11.03
2022-10-01T21:50:35.451Z,11.05
2022-10-01T21:53:28.774Z,11.07
2022-10-01T21:56:15.262Z,11.09
2022-10-01T21:58:59.653Z,11.10
2022-10-01T22:01:50.658Z,11.11
2022-10-01T22:04:32.849Z,11.12
2022-10-01T22:07:11.758Z,11.13
2022-10-01T22:09:50.670Z,11.13
2022-10-01T22:12:21.918Z,11.14
2022-10-01T22:14:55.128Z,11.14
2022-10-01T22:17:29.128Z,11.15
2022-10-01T22:20:04.994Z,11.15
2022-10-01T22:22:38.551Z,11.14
2022-10-01T22:25:13.660Z,11.15
2022-10-01T22:27:49.847Z,11.15
2022-10-01T22:30:22.214Z,11.16
2022-10-01T22:33:00.206Z,11.16
2022-10-01T22:35:33.828Z,11.16
2022-10-01T22:38:11.273Z,11.18
2022-10-01T22:40:47.228Z,11.19
2022-10-01T22:43:17.578Z,11.20
2022-10-01T22:46:05.521Z,11.21
2022-10-01T22:48:49.578Z,11.22
2022-10-01T22:51:36.755Z,11.23
2022-10-01T22:54:31.324Z,11.26
2022-10-01T22:57:13.299Z,11.28
2022-10-01T22:59:51.595Z,11.30
2022-10-01T23:02:30.226Z,11.34
2022-10-01T23:05:12.934Z,11.37
2022-10-01T23:07:55.302Z,11.41
2022-10-01T23:10:33.084Z,11.44
2022-10-01T23:13:12.795Z,11.49
2022-10-01T23:15:51.786Z,11.52
2022-10-01T23:18:35.270Z,11.55
2022-10-01T23:21:19.617Z,11.59
2022-10-01T23:23:58.530Z,11.63
2022-10-01T23:26:37.062Z,11.66
2022-10-01T23:29:20.872Z,11.70
2022-10-01T23:32:01.062Z,11.74
2022-10-01T23:34:42.630Z,11.76
2022-10-01T23:37:42.018Z,11.98
2022-10-01T23:40:15.342Z,12.45
2022-10-01T23:42:53.944Z,12.66
2022-10-01T23:45:29.566Z,12.93
2022-10-01T23:48:04.736Z,13.19
2022-10-01T23:50:40.973Z,13.35
2022-10-01T23:53:18.440Z,13.42
2022-10-01T23:56:19.690Z,13.52
2022-10-01T23:58:54.435Z,13.55
